Search for airport 
image banner adimage banner adimage banner ad
image banner ad

96CA - Warner Center Plaza One

Located in Woodland Hills, United States

ICAO - 96CA, IATA -

Data provided by Airmate  

General information

Coordinates: N34°10'42" W118°36'1"
Elevation is 1133 feet MSL.
Magnetic variation is 14° East
View others Airports in California

Operational data

Special qualification required
Current time UTC:
Current local time:
Weather at : KVNY - Van Nuys ( 11 km )
METAR: KVNY 211251Z 14004KT 6SM BR OVC005 17/14 A2996 RMK AO2 SLP136 T01670144
TAF: KVNY 211253Z 2113/2212 13006KT 3SM BR OVC005 FM211530 12007KT P6SM SKC FM212100 14010KT P6SM SKC FM220300 12006KT P6SM SKC FM220500 VRB03KT P6SM SKC FM221100 VRB03KT P6SM BKN007
View NOTAMs / SUP AIP / TFR affecting this airport [VIEW]
Communications frequencies: [VIEW]

Runways:

Airport contact information

Address: Woodland Hills United States

Satellite view of 96CA